Terminal Aerodrome Forecast
Issued by NWS Wilmington, OH

Current Version | Previous Version | Graphics & Text | Print | Product List | Glossary On
Versions: 1 2 3 4 5 6 7 8 9 10 11 12 13 14 15 16 17 18 19 20 21 22 23 24 25 26 27 28 29 30 31 32
000
FTUS41 KILN 272344
TAFCVG
TAF
KCVG 272344Z 2800/2906 23012G20KT P6SM FEW050 SCT250
     FM280200 22006KT P6SM SCT250
     FM280900 20004KT P6SM SCT060 BKN200
     FM281200 21006KT P6SM VCSH OVC050
     FM281800 25008KT 5SM -SHRA BR OVC040
     FM290000 27006KT P6SM VCSH OVC035=

USA.gov is the U.S. government's official web portal to all federal, state and local government web resources and services.